sensor_id;sensor_type;location;lat;lon;timestamp;P1;durP1;ratioP1;P2;durP2;ratioP2
22334;SDS011;11335;43.848;25.958;2023-03-31T00:01:21;8.63;;;3.85;;
22334;SDS011;11335;43.848;25.958;2023-03-31T00:04:09;7.25;;;4.13;;
22334;SDS011;11335;43.848;25.958;2023-03-31T00:06:57;7.65;;;3.85;;
22334;SDS011;11335;43.848;25.958;2023-03-31T00:09:43;5.13;;;3.30;;
22334;SDS011;11335;43.848;25.958;2023-03-31T00:12:30;5.30;;;3.10;;
22334;SDS011;11335;43.848;25.958;2023-03-31T00:15:16;5.13;;;3.05;;
22334;SDS011;11335;43.848;25.958;2023-03-31T00:18:01;4.93;;;2.78;;
22334;SDS011;11335;43.848;25.958;2023-03-31T00:20:47;8.02;;;2.90;;
22334;SDS011;11335;43.848;25.958;2023-03-31T00:23:32;9.27;;;4.93;;
22334;SDS011;11335;43.848;25.958;2023-03-31T00:26:18;8.98;;;4.78;;
22334;SDS011;11335;43.848;25.958;2023-03-31T00:29:04;9.10;;;6.05;;
22334;SDS011;11335;43.848;25.958;2023-03-31T00:31:50;9.90;;;5.55;;
22334;SDS011;11335;43.848;25.958;2023-03-31T00:34:36;9.73;;;5.30;;
22334;SDS011;11335;43.848;25.958;2023-03-31T00:37:22;8.98;;;4.93;;
22334;SDS011;11335;43.848;25.958;2023-03-31T00:40:09;7.55;;;3.90;;
22334;SDS011;11335;43.848;25.958;2023-03-31T00:42:55;7.40;;;4.13;;
22334;SDS011;11335;43.848;25.958;2023-03-31T00:45:40;6.57;;;4.15;;
22334;SDS011;11335;43.848;25.958;2023-03-31T00:48:26;10.57;;;4.53;;
22334;SDS011;11335;43.848;25.958;2023-03-31T00:51:12;7.10;;;4.07;;
22334;SDS011;11335;43.848;25.958;2023-03-31T00:54:00;10.10;;;4.80;;
22334;SDS011;11335;43.848;25.958;2023-03-31T00:56:49;10.43;;;4.80;;
22334;SDS011;11335;43.848;25.958;2023-03-31T00:59:42;10.77;;;5.18;;
22334;SDS011;11335;43.848;25.958;2023-03-31T01:02:28;8.32;;;5.32;;
22334;SDS011;11335;43.848;25.958;2023-03-31T01:05:13;9.27;;;4.60;;
22334;SDS011;11335;43.848;25.958;2023-03-31T01:07:59;9.52;;;4.90;;
22334;SDS011;11335;43.848;25.958;2023-03-31T01:10:47;7.75;;;4.65;;
22334;SDS011;11335;43.848;25.958;2023-03-31T01:13:34;9.48;;;5.00;;
22334;SDS011;11335;43.848;25.958;2023-03-31T01:16:21;10.52;;;4.88;;
22334;SDS011;11335;43.848;25.958;2023-03-31T01:19:13;10.25;;;4.93;;
22334;SDS011;11335;43.848;25.958;2023-03-31T01:28:07;10.60;;;5.30;;
22334;SDS011;11335;43.848;25.958;2023-03-31T01:40:25;13.15;;;6.50;;
22334;SDS011;11335;43.848;25.958;2023-03-31T01:43:22;11.45;;;5.60;;
22334;SDS011;11335;43.848;25.958;2023-03-31T01:46:11;10.35;;;6.68;;
22334;SDS011;11335;43.848;25.958;2023-03-31T01:54:39;10.13;;;6.68;;
22334;SDS011;11335;43.848;25.958;2023-03-31T01:57:27;10.20;;;6.38;;
22334;SDS011;11335;43.848;25.958;2023-03-31T02:00:18;12.48;;;6.68;;
22334;SDS011;11335;43.848;25.958;2023-03-31T02:06:23;13.73;;;6.15;;
22334;SDS011;11335;43.848;25.958;2023-03-31T02:09:15;11.93;;;6.13;;
22334;SDS011;11335;43.848;25.958;2023-03-31T02:12:03;10.73;;;5.78;;
22334;SDS011;11335;43.848;25.958;2023-03-31T02:14:49;7.80;;;4.47;;
22334;SDS011;11335;43.848;25.958;2023-03-31T02:17:36;7.45;;;4.10;;
22334;SDS011;11335;43.848;25.958;2023-03-31T02:20:24;8.75;;;4.03;;
22334;SDS011;11335;43.848;25.958;2023-03-31T02:23:11;7.28;;;3.85;;
22334;SDS011;11335;43.848;25.958;2023-03-31T02:25:59;8.60;;;4.00;;
22334;SDS011;11335;43.848;25.958;2023-03-31T02:28:46;6.88;;;3.90;;
22334;SDS011;11335;43.848;25.958;2023-03-31T02:31:41;7.75;;;3.67;;
22334;SDS011;11335;43.848;25.958;2023-03-31T02:34:28;6.35;;;3.45;;
22334;SDS011;11335;43.848;25.958;2023-03-31T02:37:14;5.70;;;3.35;;
22334;SDS011;11335;43.848;25.958;2023-03-31T02:40:00;7.35;;;3.30;;
22334;SDS011;11335;43.848;25.958;2023-03-31T02:42:49;4.93;;;3.20;;
22334;SDS011;11335;43.848;25.958;2023-03-31T02:45:42;5.55;;;3.47;;
22334;SDS011;11335;43.848;25.958;2023-03-31T02:48:29;5.53;;;3.30;;
22334;SDS011;11335;43.848;25.958;2023-03-31T03:00:07;7.30;;;4.30;;
22334;SDS011;11335;43.848;25.958;2023-03-31T03:05:45;7.15;;;4.10;;
22334;SDS011;11335;43.848;25.958;2023-03-31T03:11:48;6.78;;;3.72;;
22334;SDS011;11335;43.848;25.958;2023-03-31T03:17:31;6.57;;;3.70;;
22334;SDS011;11335;43.848;25.958;2023-03-31T03:20:18;5.68;;;3.78;;
22334;SDS011;11335;43.848;25.958;2023-03-31T03:23:04;8.93;;;4.20;;
22334;SDS011;11335;43.848;25.958;2023-03-31T03:25:49;8.90;;;4.15;;
22334;SDS011;11335;43.848;25.958;2023-03-31T03:28:35;6.03;;;3.85;;
22334;SDS011;11335;43.848;25.958;2023-03-31T03:31:21;5.35;;;3.65;;
22334;SDS011;11335;43.848;25.958;2023-03-31T03:34:08;7.65;;;4.10;;
22334;SDS011;11335;43.848;25.958;2023-03-31T03:36:54;8.45;;;4.20;;
22334;SDS011;11335;43.848;25.958;2023-03-31T03:39:39;5.68;;;3.35;;
22334;SDS011;11335;43.848;25.958;2023-03-31T03:42:25;6.53;;;4.00;;
22334;SDS011;11335;43.848;25.958;2023-03-31T03:45:11;7.05;;;4.25;;
22334;SDS011;11335;43.848;25.958;2023-03-31T03:47:56;7.10;;;3.95;;
22334;SDS011;11335;43.848;25.958;2023-03-31T03:50:42;8.55;;;4.60;;
22334;SDS011;11335;43.848;25.958;2023-03-31T03:53:29;7.55;;;4.00;;
22334;SDS011;11335;43.848;25.958;2023-03-31T03:56:14;10.65;;;4.60;;
22334;SDS011;11335;43.848;25.958;2023-03-31T03:59:00;8.52;;;4.65;;
22334;SDS011;11335;43.848;25.958;2023-03-31T04:01:46;7.47;;;4.53;;
22334;SDS011;11335;43.848;25.958;2023-03-31T04:04:31;8.60;;;4.60;;
22334;SDS011;11335;43.848;25.958;2023-03-31T04:07:17;8.55;;;4.55;;
22334;SDS011;11335;43.848;25.958;2023-03-31T04:10:02;8.02;;;4.85;;
22334;SDS011;11335;43.848;25.958;2023-03-31T04:12:48;8.55;;;5.10;;
22334;SDS011;11335;43.848;25.958;2023-03-31T04:15:34;10.40;;;4.88;;
22334;SDS011;11335;43.848;25.958;2023-03-31T04:18:19;8.57;;;4.90;;
22334;SDS011;11335;43.848;25.958;2023-03-31T04:21:09;8.88;;;5.45;;
22334;SDS011;11335;43.848;25.958;2023-03-31T04:23:56;9.50;;;5.55;;
22334;SDS011;11335;43.848;25.958;2023-03-31T04:26:48;8.35;;;5.40;;
22334;SDS011;11335;43.848;25.958;2023-03-31T04:29:35;8.02;;;4.72;;
22334;SDS011;11335;43.848;25.958;2023-03-31T04:32:21;12.15;;;5.15;;
22334;SDS011;11335;43.848;25.958;2023-03-31T04:35:07;9.02;;;5.35;;
22334;SDS011;11335;43.848;25.958;2023-03-31T04:37:53;9.30;;;6.03;;
22334;SDS011;11335;43.848;25.958;2023-03-31T04:40:44;9.00;;;5.65;;
22334;SDS011;11335;43.848;25.958;2023-03-31T04:43:29;9.02;;;5.55;;
22334;SDS011;11335;43.848;25.958;2023-03-31T04:46:15;9.30;;;5.72;;
22334;SDS011;11335;43.848;25.958;2023-03-31T04:49:01;11.13;;;5.60;;
22334;SDS011;11335;43.848;25.958;2023-03-31T04:51:47;12.57;;;5.63;;
22334;SDS011;11335;43.848;25.958;2023-03-31T04:54:32;8.23;;;5.70;;
22334;SDS011;11335;43.848;25.958;2023-03-31T04:57:18;13.70;;;6.93;;
22334;SDS011;11335;43.848;25.958;2023-03-31T05:00:04;10.90;;;6.75;;
22334;SDS011;11335;43.848;25.958;2023-03-31T05:02:52;10.77;;;6.95;;
22334;SDS011;11335;43.848;25.958;2023-03-31T05:05:37;10.90;;;6.95;;
22334;SDS011;11335;43.848;25.958;2023-03-31T05:08:23;13.77;;;7.75;;
22334;SDS011;11335;43.848;25.958;2023-03-31T05:11:09;10.50;;;7.05;;
22334;SDS011;11335;43.848;25.958;2023-03-31T05:13:55;12.88;;;7.40;;
22334;SDS011;11335;43.848;25.958;2023-03-31T05:16:41;11.18;;;7.32;;
22334;SDS011;11335;43.848;25.958;2023-03-31T05:19:27;15.02;;;8.40;;
22334;SDS011;11335;43.848;25.958;2023-03-31T05:22:13;12.23;;;7.40;;
22334;SDS011;11335;43.848;25.958;2023-03-31T05:24:58;11.82;;;7.97;;
22334;SDS011;11335;43.848;25.958;2023-03-31T05:27:44;18.13;;;8.82;;
22334;SDS011;11335;43.848;25.958;2023-03-31T05:30:31;16.92;;;10.07;;
22334;SDS011;11335;43.848;25.958;2023-03-31T05:33:17;45.53;;;27.08;;
22334;SDS011;11335;43.848;25.958;2023-03-31T05:36:02;16.45;;;10.63;;
22334;SDS011;11335;43.848;25.958;2023-03-31T05:38:48;15.50;;;9.75;;
22334;SDS011;11335;43.848;25.958;2023-03-31T05:41:34;15.55;;;9.48;;
22334;SDS011;11335;43.848;25.958;2023-03-31T05:44:19;20.95;;;11.45;;
22334;SDS011;11335;43.848;25.958;2023-03-31T05:47:05;25.38;;;13.20;;
22334;SDS011;11335;43.848;25.958;2023-03-31T05:49:51;22.08;;;13.07;;
22334;SDS011;11335;43.848;25.958;2023-03-31T05:52:37;24.25;;;13.88;;
22334;SDS011;11335;43.848;25.958;2023-03-31T05:55:23;22.17;;;12.73;;
22334;SDS011;11335;43.848;25.958;2023-03-31T05:58:08;18.30;;;11.40;;
22334;SDS011;11335;43.848;25.958;2023-03-31T06:01:07;19.95;;;11.90;;
22334;SDS011;11335;43.848;25.958;2023-03-31T06:03:53;19.27;;;12.43;;
22334;SDS011;11335;43.848;25.958;2023-03-31T06:06:39;21.17;;;11.60;;
22334;SDS011;11335;43.848;25.958;2023-03-31T06:09:24;21.63;;;12.55;;
22334;SDS011;11335;43.848;25.958;2023-03-31T06:12:10;23.65;;;12.23;;
22334;SDS011;11335;43.848;25.958;2023-03-31T06:14:55;24.35;;;13.70;;
22334;SDS011;11335;43.848;25.958;2023-03-31T06:17:41;21.88;;;13.07;;
22334;SDS011;11335;43.848;25.958;2023-03-31T06:20:27;25.92;;;12.88;;
22334;SDS011;11335;43.848;25.958;2023-03-31T06:23:12;18.27;;;11.48;;
22334;SDS011;11335;43.848;25.958;2023-03-31T06:26:03;21.35;;;12.32;;
22334;SDS011;11335;43.848;25.958;2023-03-31T06:28:51;20.25;;;12.45;;
22334;SDS011;11335;43.848;25.958;2023-03-31T06:31:37;17.13;;;11.30;;
22334;SDS011;11335;43.848;25.958;2023-03-31T06:34:22;19.48;;;11.93;;
22334;SDS011;11335;43.848;25.958;2023-03-31T06:37:08;22.35;;;12.82;;
22334;SDS011;11335;43.848;25.958;2023-03-31T06:39:53;20.20;;;12.55;;
22334;SDS011;11335;43.848;25.958;2023-03-31T06:42:39;22.98;;;13.70;;
22334;SDS011;11335;43.848;25.958;2023-03-31T06:45:25;22.80;;;14.15;;
22334;SDS011;11335;43.848;25.958;2023-03-31T06:48:10;20.63;;;13.23;;
22334;SDS011;11335;43.848;25.958;2023-03-31T06:50:59;20.00;;;10.75;;
22334;SDS011;11335;43.848;25.958;2023-03-31T06:53:45;16.90;;;10.63;;
22334;SDS011;11335;43.848;25.958;2023-03-31T06:56:31;19.63;;;10.93;;
22334;SDS011;11335;43.848;25.958;2023-03-31T06:59:17;17.58;;;9.77;;
22334;SDS011;11335;43.848;25.958;2023-03-31T07:02:03;20.33;;;11.80;;
22334;SDS011;11335;43.848;25.958;2023-03-31T07:04:48;19.13;;;11.25;;
22334;SDS011;11335;43.848;25.958;2023-03-31T07:07:34;22.83;;;12.18;;
22334;SDS011;11335;43.848;25.958;2023-03-31T07:10:20;19.60;;;12.00;;
22334;SDS011;11335;43.848;25.958;2023-03-31T07:13:06;13.98;;;9.57;;
22334;SDS011;11335;43.848;25.958;2023-03-31T07:15:51;16.58;;;9.65;;
22334;SDS011;11335;43.848;25.958;2023-03-31T07:18:37;12.07;;;7.38;;
22334;SDS011;11335;43.848;25.958;2023-03-31T07:21:26;14.07;;;8.45;;
22334;SDS011;11335;43.848;25.958;2023-03-31T07:24:11;10.77;;;7.45;;
22334;SDS011;11335;43.848;25.958;2023-03-31T07:26:57;12.35;;;7.13;;
22334;SDS011;11335;43.848;25.958;2023-03-31T07:29:43;11.50;;;7.32;;
22334;SDS011;11335;43.848;25.958;2023-03-31T07:32:28;14.95;;;8.88;;
22334;SDS011;11335;43.848;25.958;2023-03-31T07:35:14;15.00;;;9.15;;
22334;SDS011;11335;43.848;25.958;2023-03-31T07:38:00;13.70;;;9.02;;
22334;SDS011;11335;43.848;25.958;2023-03-31T07:40:46;16.60;;;9.50;;
22334;SDS011;11335;43.848;25.958;2023-03-31T07:43:31;13.43;;;8.65;;
22334;SDS011;11335;43.848;25.958;2023-03-31T07:46:21;14.23;;;8.40;;
22334;SDS011;11335;43.848;25.958;2023-03-31T07:49:07;12.40;;;7.88;;
22334;SDS011;11335;43.848;25.958;2023-03-31T07:51:53;14.18;;;8.38;;
22334;SDS011;11335;43.848;25.958;2023-03-31T07:54:39;11.77;;;7.45;;
22334;SDS011;11335;43.848;25.958;2023-03-31T07:57:25;11.55;;;7.10;;
22334;SDS011;11335;43.848;25.958;2023-03-31T08:00:10;11.05;;;7.20;;
22334;SDS011;11335;43.848;25.958;2023-03-31T08:02:56;9.95;;;6.38;;
22334;SDS011;11335;43.848;25.958;2023-03-31T08:05:42;10.95;;;7.38;;
22334;SDS011;11335;43.848;25.958;2023-03-31T08:08:27;12.52;;;7.90;;
22334;SDS011;11335;43.848;25.958;2023-03-31T08:11:13;15.32;;;9.15;;
22334;SDS011;11335;43.848;25.958;2023-03-31T08:13:59;13.70;;;9.05;;
22334;SDS011;11335;43.848;25.958;2023-03-31T08:16:44;15.52;;;10.43;;
22334;SDS011;11335;43.848;25.958;2023-03-31T08:19:30;11.32;;;8.48;;
22334;SDS011;11335;43.848;25.958;2023-03-31T08:22:16;10.45;;;7.45;;
22334;SDS011;11335;43.848;25.958;2023-03-31T08:25:02;11.85;;;7.38;;
22334;SDS011;11335;43.848;25.958;2023-03-31T08:27:48;10.75;;;6.70;;
22334;SDS011;11335;43.848;25.958;2023-03-31T08:30:39;10.10;;;7.20;;
22334;SDS011;11335;43.848;25.958;2023-03-31T08:33:25;12.02;;;8.57;;
22334;SDS011;11335;43.848;25.958;2023-03-31T08:36:11;11.73;;;8.65;;
22334;SDS011;11335;43.848;25.958;2023-03-31T08:38:56;13.65;;;8.25;;
22334;SDS011;11335;43.848;25.958;2023-03-31T08:44:35;11.98;;;7.15;;
22334;SDS011;11335;43.848;25.958;2023-03-31T08:47:23;13.13;;;8.05;;
22334;SDS011;11335;43.848;25.958;2023-03-31T08:50:11;13.77;;;7.63;;
22334;SDS011;11335;43.848;25.958;2023-03-31T08:53:19;8.98;;;5.38;;
22334;SDS011;11335;43.848;25.958;2023-03-31T08:56:07;9.65;;;6.25;;
22334;SDS011;11335;43.848;25.958;2023-03-31T08:58:53;8.48;;;5.70;;
22334;SDS011;11335;43.848;25.958;2023-03-31T09:01:49;8.07;;;5.93;;
22334;SDS011;11335;43.848;25.958;2023-03-31T09:22:29;8.20;;;4.88;;
22334;SDS011;11335;43.848;25.958;2023-03-31T09:25:19;7.75;;;4.53;;
22334;SDS011;11335;43.848;25.958;2023-03-31T09:28:13;7.03;;;4.60;;
22334;SDS011;11335;43.848;25.958;2023-03-31T09:31:21;6.18;;;4.50;;
22334;SDS011;11335;43.848;25.958;2023-03-31T09:34:09;6.65;;;4.85;;
22334;SDS011;11335;43.848;25.958;2023-03-31T09:36:56;14.43;;;5.40;;
22334;SDS011;11335;43.848;25.958;2023-03-31T09:39:42;9.68;;;5.03;;
22334;SDS011;11335;43.848;25.958;2023-03-31T09:42:28;9.60;;;4.68;;
22334;SDS011;11335;43.848;25.958;2023-03-31T09:45:14;8.40;;;4.72;;
22334;SDS011;11335;43.848;25.958;2023-03-31T09:48:02;10.30;;;4.60;;
22334;SDS011;11335;43.848;25.958;2023-03-31T09:50:49;10.48;;;4.70;;
22334;SDS011;11335;43.848;25.958;2023-03-31T10:02:34;9.50;;;5.65;;
22334;SDS011;11335;43.848;25.958;2023-03-31T10:05:33;10.80;;;5.80;;
22334;SDS011;11335;43.848;25.958;2023-03-31T10:08:37;9.35;;;5.85;;
22334;SDS011;11335;43.848;25.958;2023-03-31T10:11:23;8.45;;;5.30;;
22334;SDS011;11335;43.848;25.958;2023-03-31T10:14:14;8.18;;;5.63;;
22334;SDS011;11335;43.848;25.958;2023-03-31T10:17:02;9.32;;;6.13;;
22334;SDS011;11335;43.848;25.958;2023-03-31T10:19:52;9.57;;;6.15;;
22334;SDS011;11335;43.848;25.958;2023-03-31T10:22:42;9.48;;;6.22;;
22334;SDS011;11335;43.848;25.958;2023-03-31T10:25:28;10.57;;;6.13;;
22334;SDS011;11335;43.848;25.958;2023-03-31T10:28:17;9.85;;;6.80;;
22334;SDS011;11335;43.848;25.958;2023-03-31T10:31:04;7.78;;;5.90;;
22334;SDS011;11335;43.848;25.958;2023-03-31T10:33:50;14.07;;;7.30;;
22334;SDS011;11335;43.848;25.958;2023-03-31T10:36:36;9.77;;;7.65;;
22334;SDS011;11335;43.848;25.958;2023-03-31T10:39:29;11.65;;;7.47;;
22334;SDS011;11335;43.848;25.958;2023-03-31T10:42:22;19.10;;;14.18;;
22334;SDS011;11335;43.848;25.958;2023-03-31T10:48:08;9.05;;;7.78;;
22334;SDS011;11335;43.848;25.958;2023-03-31T10:53:51;10.85;;;7.78;;
22334;SDS011;11335;43.848;25.958;2023-03-31T10:56:46;13.13;;;7.40;;
22334;SDS011;11335;43.848;25.958;2023-03-31T11:05:35;10.63;;;7.10;;
22334;SDS011;11335;43.848;25.958;2023-03-31T11:25:44;7.97;;;5.40;;
22334;SDS011;11335;43.848;25.958;2023-03-31T11:40:28;6.60;;;4.47;;
22334;SDS011;11335;43.848;25.958;2023-03-31T11:42:57;9.98;;;4.25;;
22334;SDS011;11335;43.848;25.958;2023-03-31T11:45:45;8.23;;;4.13;;
22334;SDS011;11335;43.848;25.958;2023-03-31T11:51:26;6.40;;;3.72;;
22334;SDS011;11335;43.848;25.958;2023-03-31T11:54:22;7.35;;;3.42;;
22334;SDS011;11335;43.848;25.958;2023-03-31T11:57:16;4.03;;;3.13;;
22334;SDS011;11335;43.848;25.958;2023-03-31T12:00:20;5.03;;;3.00;;
22334;SDS011;11335;43.848;25.958;2023-03-31T12:03:14;4.70;;;3.05;;
22334;SDS011;11335;43.848;25.958;2023-03-31T12:06:02;6.05;;;3.17;;
22334;SDS011;11335;43.848;25.958;2023-03-31T12:11:42;4.82;;;2.80;;
22334;SDS011;11335;43.848;25.958;2023-03-31T12:14:32;5.53;;;2.92;;
22334;SDS011;11335;43.848;25.958;2023-03-31T12:17:20;19.33;;;7.93;;
22334;SDS011;11335;43.848;25.958;2023-03-31T12:20:16;6.40;;;2.85;;
22334;SDS011;11335;43.848;25.958;2023-03-31T12:23:10;4.72;;;2.50;;
22334;SDS011;11335;43.848;25.958;2023-03-31T12:26:02;7.43;;;3.13;;
22334;SDS011;11335;43.848;25.958;2023-03-31T12:28:50;7.50;;;2.85;;
22334;SDS011;11335;43.848;25.958;2023-03-31T12:31:37;4.60;;;2.13;;
22334;SDS011;11335;43.848;25.958;2023-03-31T12:34:24;4.28;;;2.17;;
22334;SDS011;11335;43.848;25.958;2023-03-31T12:48:39;8.02;;;2.80;;
22334;SDS011;11335;43.848;25.958;2023-03-31T12:57:36;5.78;;;3.30;;
22334;SDS011;11335;43.848;25.958;2023-03-31T13:00:25;3.70;;;3.10;;
22334;SDS011;11335;43.848;25.958;2023-03-31T13:03:34;8.05;;;3.28;;
22334;SDS011;11335;43.848;25.958;2023-03-31T13:11:59;5.63;;;3.42;;
22334;SDS011;11335;43.848;25.958;2023-03-31T13:14:51;5.80;;;3.38;;
22334;SDS011;11335;43.848;25.958;2023-03-31T13:17:38;7.03;;;3.33;;
22334;SDS011;11335;43.848;25.958;2023-03-31T13:20:29;6.82;;;4.13;;
22334;SDS011;11335;43.848;25.958;2023-03-31T13:26:03;5.00;;;3.72;;
22334;SDS011;11335;43.848;25.958;2023-03-31T13:29:10;7.45;;;3.65;;
22334;SDS011;11335;43.848;25.958;2023-03-31T13:34:54;6.43;;;3.50;;
22334;SDS011;11335;43.848;25.958;2023-03-31T13:50:09;7.88;;;3.38;;
22334;SDS011;11335;43.848;25.958;2023-03-31T13:59:29;6.70;;;2.90;;
22334;SDS011;11335;43.848;25.958;2023-03-31T14:02:02;7.75;;;3.10;;
22334;SDS011;11335;43.848;25.958;2023-03-31T14:08:09;9.85;;;2.90;;
22334;SDS011;11335;43.848;25.958;2023-03-31T14:11:41;6.55;;;3.28;;
22334;SDS011;11335;43.848;25.958;2023-03-31T14:14:14;4.97;;;3.08;;
22334;SDS011;11335;43.848;25.958;2023-03-31T14:17:01;5.20;;;2.70;;
22334;SDS011;11335;43.848;25.958;2023-03-31T14:25:58;4.10;;;2.50;;
22334;SDS011;11335;43.848;25.958;2023-03-31T14:28:58;3.97;;;2.67;;
22334;SDS011;11335;43.848;25.958;2023-03-31T14:34:47;7.53;;;2.65;;
22334;SDS011;11335;43.848;25.958;2023-03-31T14:37:36;4.00;;;2.47;;
22334;SDS011;11335;43.848;25.958;2023-03-31T14:40:22;9.38;;;3.15;;
22334;SDS011;11335;43.848;25.958;2023-03-31T14:43:15;4.88;;;2.95;;
22334;SDS011;11335;43.848;25.958;2023-03-31T14:46:03;5.95;;;2.53;;
22334;SDS011;11335;43.848;25.958;2023-03-31T14:48:50;5.03;;;2.58;;
22334;SDS011;11335;43.848;25.958;2023-03-31T14:51:36;9.57;;;2.97;;
22334;SDS011;11335;43.848;25.958;2023-03-31T14:54:21;3.55;;;2.83;;
22334;SDS011;11335;43.848;25.958;2023-03-31T14:57:07;9.20;;;5.07;;
22334;SDS011;11335;43.848;25.958;2023-03-31T14:59:54;8.18;;;4.85;;
22334;SDS011;11335;43.848;25.958;2023-03-31T15:02:40;7.55;;;3.47;;
22334;SDS011;11335;43.848;25.958;2023-03-31T15:08:19;6.18;;;2.47;;
22334;SDS011;11335;43.848;25.958;2023-03-31T15:11:07;5.45;;;2.50;;
22334;SDS011;11335;43.848;25.958;2023-03-31T15:13:54;4.88;;;2.40;;
22334;SDS011;11335;43.848;25.958;2023-03-31T15:16:41;6.97;;;2.40;;
22334;SDS011;11335;43.848;25.958;2023-03-31T15:19:31;11.43;;;2.33;;
22334;SDS011;11335;43.848;25.958;2023-03-31T15:22:17;4.20;;;2.10;;
22334;SDS011;11335;43.848;25.958;2023-03-31T15:25:03;3.75;;;2.00;;
22334;SDS011;11335;43.848;25.958;2023-03-31T15:27:52;3.45;;;1.95;;
22334;SDS011;11335;43.848;25.958;2023-03-31T15:30:39;4.28;;;2.08;;
22334;SDS011;11335;43.848;25.958;2023-03-31T15:33:27;3.80;;;1.95;;
22334;SDS011;11335;43.848;25.958;2023-03-31T15:36:16;3.78;;;2.20;;
22334;SDS011;11335;43.848;25.958;2023-03-31T15:39:01;2.80;;;2.20;;
22334;SDS011;11335;43.848;25.958;2023-03-31T15:41:49;7.18;;;2.97;;
22334;SDS011;11335;43.848;25.958;2023-03-31T15:47:27;6.20;;;2.33;;
22334;SDS011;11335;43.848;25.958;2023-03-31T15:50:13;11.75;;;2.65;;
22334;SDS011;11335;43.848;25.958;2023-03-31T15:52:59;4.70;;;2.05;;
22334;SDS011;11335;43.848;25.958;2023-03-31T15:55:45;3.30;;;2.00;;
22334;SDS011;11335;43.848;25.958;2023-03-31T15:58:47;4.93;;;2.20;;
22334;SDS011;11335;43.848;25.958;2023-03-31T16:01:40;4.97;;;2.65;;
22334;SDS011;11335;43.848;25.958;2023-03-31T16:04:28;4.57;;;1.95;;
22334;SDS011;11335;43.848;25.958;2023-03-31T16:07:15;7.05;;;2.50;;
22334;SDS011;11335;43.848;25.958;2023-03-31T16:10:08;4.75;;;2.50;;
22334;SDS011;11335;43.848;25.958;2023-03-31T16:13:00;8.93;;;3.55;;
22334;SDS011;11335;43.848;25.958;2023-03-31T16:15:47;7.93;;;3.20;;
22334;SDS011;11335;43.848;25.958;2023-03-31T16:18:35;10.38;;;2.90;;
22334;SDS011;11335;43.848;25.958;2023-03-31T16:21:23;5.85;;;3.00;;
22334;SDS011;11335;43.848;25.958;2023-03-31T16:24:09;4.53;;;2.70;;
22334;SDS011;11335;43.848;25.958;2023-03-31T16:27:02;5.28;;;2.40;;
22334;SDS011;11335;43.848;25.958;2023-03-31T16:29:51;5.38;;;2.70;;
22334;SDS011;11335;43.848;25.958;2023-03-31T16:33:08;6.65;;;2.65;;
22334;SDS011;11335;43.848;25.958;2023-03-31T16:35:54;5.03;;;2.70;;
22334;SDS011;11335;43.848;25.958;2023-03-31T16:38:40;11.27;;;3.22;;
22334;SDS011;11335;43.848;25.958;2023-03-31T16:41:29;4.75;;;3.20;;
22334;SDS011;11335;43.848;25.958;2023-03-31T16:44:15;8.25;;;3.63;;
22334;SDS011;11335;43.848;25.958;2023-03-31T16:47:01;10.15;;;3.75;;
22334;SDS011;11335;43.848;25.958;2023-03-31T16:49:46;7.43;;;2.90;;
22334;SDS011;11335;43.848;25.958;2023-03-31T16:52:32;8.90;;;3.15;;
22334;SDS011;11335;43.848;25.958;2023-03-31T16:55:17;8.60;;;3.22;;
22334;SDS011;11335;43.848;25.958;2023-03-31T16:58:03;4.78;;;3.13;;
22334;SDS011;11335;43.848;25.958;2023-03-31T17:00:49;3.85;;;2.85;;
22334;SDS011;11335;43.848;25.958;2023-03-31T17:03:35;6.32;;;3.70;;
22334;SDS011;11335;43.848;25.958;2023-03-31T17:06:22;5.90;;;3.30;;
22334;SDS011;11335;43.848;25.958;2023-03-31T17:09:08;5.63;;;3.58;;
22334;SDS011;11335;43.848;25.958;2023-03-31T17:11:53;7.78;;;4.60;;
22334;SDS011;11335;43.848;25.958;2023-03-31T17:14:39;7.47;;;5.05;;
22334;SDS011;11335;43.848;25.958;2023-03-31T17:17:25;14.55;;;4.75;;
22334;SDS011;11335;43.848;25.958;2023-03-31T17:20:10;6.65;;;4.45;;
22334;SDS011;11335;43.848;25.958;2023-03-31T17:22:56;7.70;;;4.15;;
22334;SDS011;11335;43.848;25.958;2023-03-31T17:25:47;8.02;;;4.00;;
22334;SDS011;11335;43.848;25.958;2023-03-31T17:28:32;5.43;;;3.95;;
22334;SDS011;11335;43.848;25.958;2023-03-31T17:31:19;5.47;;;4.15;;
22334;SDS011;11335;43.848;25.958;2023-03-31T17:34:05;6.93;;;4.60;;
22334;SDS011;11335;43.848;25.958;2023-03-31T17:36:51;10.82;;;5.03;;
22334;SDS011;11335;43.848;25.958;2023-03-31T17:39:39;9.15;;;5.47;;
22334;SDS011;11335;43.848;25.958;2023-03-31T17:42:24;10.75;;;5.72;;
22334;SDS011;11335;43.848;25.958;2023-03-31T17:45:10;8.57;;;5.65;;
22334;SDS011;11335;43.848;25.958;2023-03-31T17:47:57;8.35;;;5.47;;
22334;SDS011;11335;43.848;25.958;2023-03-31T17:50:43;8.25;;;5.95;;
22334;SDS011;11335;43.848;25.958;2023-03-31T17:53:28;9.13;;;5.63;;
22334;SDS011;11335;43.848;25.958;2023-03-31T17:56:15;12.48;;;6.35;;
22334;SDS011;11335;43.848;25.958;2023-03-31T17:59:01;11.63;;;6.65;;
22334;SDS011;11335;43.848;25.958;2023-03-31T18:01:47;10.52;;;6.40;;
22334;SDS011;11335;43.848;25.958;2023-03-31T18:04:33;12.10;;;6.75;;
22334;SDS011;11335;43.848;25.958;2023-03-31T18:07:18;10.85;;;6.15;;
22334;SDS011;11335;43.848;25.958;2023-03-31T18:10:07;13.50;;;6.03;;
22334;SDS011;11335;43.848;25.958;2023-03-31T18:12:53;14.30;;;7.35;;
22334;SDS011;11335;43.848;25.958;2023-03-31T18:15:44;8.95;;;6.85;;
22334;SDS011;11335;43.848;25.958;2023-03-31T18:18:30;10.35;;;5.72;;
22334;SDS011;11335;43.848;25.958;2023-03-31T18:21:16;7.88;;;5.90;;
22334;SDS011;11335;43.848;25.958;2023-03-31T18:24:02;10.05;;;5.53;;
22334;SDS011;11335;43.848;25.958;2023-03-31T18:26:48;8.77;;;5.93;;
22334;SDS011;11335;43.848;25.958;2023-03-31T18:29:33;8.10;;;5.80;;
22334;SDS011;11335;43.848;25.958;2023-03-31T18:32:19;11.70;;;6.22;;
22334;SDS011;11335;43.848;25.958;2023-03-31T18:35:05;11.95;;;5.95;;
22334;SDS011;11335;43.848;25.958;2023-03-31T18:37:51;9.18;;;6.10;;
22334;SDS011;11335;43.848;25.958;2023-03-31T18:40:36;10.23;;;6.30;;
22334;SDS011;11335;43.848;25.958;2023-03-31T18:43:23;10.50;;;6.43;;
22334;SDS011;11335;43.848;25.958;2023-03-31T18:46:12;10.35;;;6.57;;
22334;SDS011;11335;43.848;25.958;2023-03-31T18:48:58;11.52;;;6.43;;
22334;SDS011;11335;43.848;25.958;2023-03-31T18:51:43;8.57;;;6.30;;
22334;SDS011;11335;43.848;25.958;2023-03-31T18:54:29;10.25;;;6.50;;
22334;SDS011;11335;43.848;25.958;2023-03-31T18:57:15;11.65;;;6.38;;
22334;SDS011;11335;43.848;25.958;2023-03-31T19:00:02;6.80;;;5.75;;
22334;SDS011;11335;43.848;25.958;2023-03-31T19:02:48;12.68;;;6.40;;
22334;SDS011;11335;43.848;25.958;2023-03-31T19:05:33;9.32;;;6.32;;
22334;SDS011;11335;43.848;25.958;2023-03-31T19:08:19;10.32;;;6.75;;
22334;SDS011;11335;43.848;25.958;2023-03-31T19:11:08;12.85;;;7.05;;
22334;SDS011;11335;43.848;25.958;2023-03-31T19:13:54;9.85;;;7.40;;
22334;SDS011;11335;43.848;25.958;2023-03-31T19:16:40;17.75;;;9.07;;
22334;SDS011;11335;43.848;25.958;2023-03-31T19:19:28;13.48;;;8.55;;
22334;SDS011;11335;43.848;25.958;2023-03-31T19:22:14;13.65;;;8.20;;
22334;SDS011;11335;43.848;25.958;2023-03-31T19:25:00;12.85;;;8.07;;
22334;SDS011;11335;43.848;25.958;2023-03-31T19:27:46;13.02;;;7.55;;
22334;SDS011;11335;43.848;25.958;2023-03-31T19:30:31;12.23;;;8.40;;
22334;SDS011;11335;43.848;25.958;2023-03-31T19:33:17;12.95;;;8.57;;